createdAt,value
2023-06-04T00:00:20.221Z,192.13
2023-06-04T00:01:20.185Z,193.16
2023-06-04T00:02:20.200Z,191.99
2023-06-04T00:03:20.347Z,192.53
2023-06-04T00:04:20.246Z,192.62
2023-06-04T00:05:20.142Z,192.17
2023-06-04T00:06:20.160Z,192.46
2023-06-04T00:07:20.145Z,191.37
2023-06-04T00:08:20.160Z,190.98
2023-06-04T00:09:20.173Z,192.16
2023-06-04T00:10:20.156Z,190.38
2023-06-04T00:11:20.147Z,188.73
2023-06-04T00:12:20.109Z,189.13
2023-06-04T00:13:20.147Z,190.33
2023-06-04T00:14:20.094Z,189.79
2023-06-04T00:15:20.112Z,190.10
2023-06-04T00:16:20.094Z,189.78
2023-06-04T00:17:20.071Z,188.46
2023-06-04T00:18:20.093Z,189.79
2023-06-04T00:19:20.083Z,190.96
2023-06-04T00:20:20.054Z,191.20
2023-06-04T00:21:20.040Z,191.73
2023-06-04T00:22:20.026Z,191.56
2023-06-04T00:23:20.031Z,191.38
2023-06-04T00:24:20.050Z,191.31
2023-06-04T00:25:20.041Z,192.59
2023-06-04T00:26:20.035Z,194.35
2023-06-04T00:27:20.001Z,194.46
2023-06-04T00:28:20.008Z,192.74
2023-06-04T00:29:19.974Z,191.19
2023-06-04T00:30:20.014Z,191.38
2023-06-04T00:31:19.992Z,190.98
2023-06-04T00:32:19.954Z,191.43
2023-06-04T00:33:20.040Z,191.26
2023-06-04T00:34:20.028Z,191.18
2023-06-04T00:35:20.093Z,191.85
2023-06-04T00:36:20.121Z,191.68
2023-06-04T00:37:20.108Z,191.81
2023-06-04T00:38:20.184Z,191.45
2023-06-04T00:39:20.215Z,191.41
2023-06-04T00:40:20.245Z,190.94
2023-06-04T00:41:20.260Z,191.22
2023-06-04T00:42:20.325Z,192.04
2023-06-04T00:43:20.339Z,192.06
2023-06-04T00:44:20.299Z,191.52
2023-06-04T00:45:20.358Z,191.56
2023-06-04T00:46:20.480Z,192.03
2023-06-04T00:47:20.403Z,190.65
2023-06-04T00:48:20.381Z,190.58
2023-06-04T00:49:20.423Z,190.82
2023-06-04T00:50:20.497Z,192.01
2023-06-04T00:51:20.468Z,191.29
2023-06-04T00:52:20.564Z,191.28
2023-06-04T00:53:20.549Z,191.18
2023-06-04T00:54:20.629Z,190.84
2023-06-04T00:55:20.643Z,192.48
2023-06-04T00:56:20.689Z,191.96
2023-06-04T00:57:20.713Z,192.73
2023-06-04T00:58:20.724Z,192.38
2023-06-04T00:59:20.716Z,191.72
2023-06-04T01:00:20.758Z,191.81
2023-06-04T01:01:20.805Z,192.38
2023-06-04T01:02:20.832Z,191.23
2023-06-04T01:03:20.836Z,190.77
2023-06-04T01:04:20.841Z,192.66
2023-06-04T01:05:20.877Z,192.24
2023-06-04T01:06:20.868Z,191.35
2023-06-04T01:07:22.018Z,189.76
2023-06-04T01:08:20.963Z,190.50
2023-06-04T01:09:20.987Z,188.87
2023-06-04T01:10:20.985Z,188.37
2023-06-04T01:11:21.041Z,188.15
2023-06-04T01:12:21.043Z,187.44
2023-06-04T01:13:21.049Z,187.73
2023-06-04T01:14:21.095Z,189.65
2023-06-04T01:15:21.064Z,187.89
2023-06-04T01:16:21.096Z,188.02
2023-06-04T01:17:21.236Z,186.79
2023-06-04T01:18:21.130Z,186.82
2023-06-04T01:19:21.149Z,186.49
2023-06-04T01:20:21.174Z,185.54
2023-06-04T01:21:21.193Z,185.97
2023-06-04T01:22:21.217Z,187.01
2023-06-04T01:23:21.254Z,186.56
2023-06-04T01:24:21.264Z,185.15
2023-06-04T01:25:21.256Z,184.25
2023-06-04T01:26:21.339Z,184.58
2023-06-04T01:27:21.367Z,186.07
2023-06-04T01:28:21.357Z,185.64
2023-06-04T01:29:21.398Z,185.03
2023-06-04T01:30:21.349Z,186.68
2023-06-04T01:31:21.515Z,185.46
2023-06-04T01:32:21.409Z,184.55
2023-06-04T01:33:21.453Z,183.51
2023-06-04T01:34:21.581Z,185.13
2023-06-04T01:35:21.545Z,185.16
2023-06-04T01:36:21.600Z,184.86
2023-06-04T01:37:21.594Z,185.29
2023-06-04T01:38:21.675Z,184.59
2023-06-04T01:39:21.679Z,184.54
2023-06-04T01:40:21.697Z,183.21
2023-06-04T01:41:21.754Z,183.54
2023-06-04T01:42:21.729Z,183.57
2023-06-04T01:43:21.790Z,183.72
2023-06-04T01:44:23.827Z,183.24
2023-06-04T01:45:21.855Z,183.78
2023-06-04T01:46:21.912Z,184.18
2023-06-04T01:47:21.922Z,183.07
2023-06-04T01:48:21.968Z,182.85
2023-06-04T01:49:21.999Z,181.84
2023-06-04T01:50:22.030Z,181.97
2023-06-04T01:51:22.061Z,181.47
2023-06-04T01:52:22.098Z,182.31
2023-06-04T01:53:22.109Z,183.10
2023-06-04T01:54:22.184Z,183.33
2023-06-04T01:55:22.223Z,183.39
2023-06-04T01:56:22.326Z,182.80
2023-06-04T01:57:22.240Z,182.67
2023-06-04T01:58:22.776Z,182.37
2023-06-04T01:59:22.385Z,182.88
2023-06-04T02:00:22.370Z,181.73
2023-06-04T02:01:22.382Z,182.32
2023-06-04T02:02:22.436Z,182.74
2023-06-04T02:03:22.461Z,184.34
2023-06-04T02:04:22.446Z,183.76
2023-06-04T02:05:22.476Z,183.77
2023-06-04T02:06:22.529Z,184.84
2023-06-04T02:07:22.580Z,183.42
2023-06-04T02:08:22.575Z,183.95
2023-06-04T02:09:22.688Z,184.10
2023-06-04T02:10:22.603Z,182.82
2023-06-04T02:11:22.622Z,184.55
2023-06-04T02:12:22.620Z,183.80
2023-06-04T02:13:22.734Z,183.56
2023-06-04T02:14:22.764Z,183.82
2023-06-04T02:15:22.785Z,182.82
2023-06-04T02:16:22.859Z,183.23
2023-06-04T02:17:22.849Z,184.16
2023-06-04T02:18:22.868Z,183.53
2023-06-04T02:19:22.915Z,183.92
2023-06-04T02:20:22.905Z,182.86
2023-06-04T02:21:22.968Z,183.29
2023-06-04T02:22:23.032Z,184.11
2023-06-04T02:23:23.057Z,185.71
2023-06-04T02:24:23.121Z,184.33
2023-06-04T02:25:23.111Z,183.18
2023-06-04T02:26:23.186Z,184.34
2023-06-04T02:27:24.044Z,184.22
2023-06-04T02:28:23.239Z,184.77
2023-06-04T02:29:23.296Z,185.22
2023-06-04T02:30:23.279Z,184.54
2023-06-04T02:31:23.319Z,183.63
2023-06-04T02:32:23.495Z,184.60
2023-06-04T02:33:23.342Z,185.47
2023-06-04T02:34:23.392Z,184.45
2023-06-04T02:35:23.409Z,184.56
2023-06-04T02:36:23.449Z,184.70
2023-06-04T02:37:23.485Z,184.84
2023-06-04T02:38:23.520Z,182.79
2023-06-04T02:39:23.481Z,182.83
2023-06-04T02:40:23.509Z,181.96
2023-06-04T02:41:23.576Z,182.28
2023-06-04T02:42:23.528Z,181.63
2023-06-04T02:43:23.576Z,182.27
2023-06-04T02:44:24.196Z,181.28
2023-06-04T02:45:23.615Z,181.35
2023-06-04T02:46:23.675Z,181.93
2023-06-04T02:47:23.701Z,180.97
2023-06-04T02:48:23.698Z,180.34
2023-06-04T02:49:23.705Z,180.54
2023-06-04T02:50:23.813Z,179.89
2023-06-04T02:51:23.828Z,181.73
2023-06-04T02:52:23.822Z,180.94
2023-06-04T02:53:23.847Z,179.77
2023-06-04T02:54:23.911Z,179.47
2023-06-04T02:55:23.928Z,180.28
2023-06-04T02:56:23.950Z,180.69
2023-06-04T02:57:23.985Z,180.10
2023-06-04T02:58:24.032Z,179.92
2023-06-04T02:59:24.050Z,180.31
2023-06-04T03:00:24.056Z,180.35
2023-06-04T03:01:24.126Z,179.59
2023-06-04T03:02:24.094Z,179.86
2023-06-04T03:03:24.164Z,181.46
2023-06-04T03:04:24.208Z,182.60
2023-06-04T03:05:24.275Z,183.79
2023-06-04T03:06:24.293Z,183.88
2023-06-04T03:07:24.342Z,181.45
2023-06-04T03:08:24.417Z,181.99
2023-06-04T03:09:24.383Z,180.55
2023-06-04T03:10:24.415Z,180.74
2023-06-04T03:11:24.452Z,181.39
2023-06-04T03:12:24.465Z,184.68
2023-06-04T03:13:24.481Z,183.02
2023-06-04T03:14:24.460Z,181.49
2023-06-04T03:15:24.477Z,182.54
2023-06-04T03:16:24.606Z,181.43
2023-06-04T03:17:24.544Z,179.40
2023-06-04T03:18:24.538Z,179.08
2023-06-04T03:19:24.642Z,178.81
2023-06-04T03:20:24.694Z,179.59
2023-06-04T03:21:24.647Z,182.29
2023-06-04T03:22:24.642Z,180.62
2023-06-04T03:23:24.737Z,179.90
2023-06-04T03:24:24.748Z,179.73
2023-06-04T03:25:24.760Z,180.19
2023-06-04T03:26:24.755Z,180.80
2023-06-04T03:27:24.779Z,180.07
2023-06-04T03:28:24.782Z,179.10
2023-06-04T03:29:24.794Z,179.21
2023-06-04T03:30:24.812Z,178.14
2023-06-04T03:31:24.862Z,176.06
2023-06-04T03:32:24.880Z,176.15
2023-06-04T03:33:24.860Z,177.86
2023-06-04T03:34:24.917Z,177.27
2023-06-04T03:35:24.915Z,178.07
2023-06-04T03:36:24.890Z,177.29
2023-06-04T03:37:25.001Z,178.02
2023-06-04T03:38:24.954Z,178.83
2023-06-04T03:39:24.962Z,180.42
2023-06-04T03:40:24.966Z,179.61
2023-06-04T03:41:24.965Z,182.04
2023-06-04T03:42:24.987Z,182.82
2023-06-04T03:43:25.033Z,181.22
2023-06-04T03:44:25.041Z,180.25
2023-06-04T03:45:25.042Z,180.55
2023-06-04T03:46:25.093Z,182.07
2023-06-04T03:47:25.147Z,179.94
2023-06-04T03:48:25.118Z,181.29
2023-06-04T03:49:25.125Z,181.17
2023-06-04T03:50:25.152Z,180.71
2023-06-04T03:51:25.198Z,181.72
2023-06-04T03:52:25.202Z,181.55
2023-06-04T03:53:25.263Z,181.14
2023-06-04T03:54:25.258Z,180.42
2023-06-04T03:55:25.298Z,179.82
2023-06-04T03:56:25.323Z,180.73
2023-06-04T03:57:25.328Z,180.05
2023-06-04T03:58:25.341Z,179.70
2023-06-04T03:59:25.411Z,181.77
2023-06-04T04:00:25.405Z,182.19
2023-06-04T04:01:25.411Z,180.24
2023-06-04T04:02:25.687Z,180.07
2023-06-04T04:03:25.602Z,179.04
2023-06-04T04:04:25.584Z,180.47
2023-06-04T04:05:25.552Z,179.87
2023-06-04T04:06:25.600Z,178.60
2023-06-04T04:07:25.591Z,178.60
2023-06-04T04:08:25.662Z,179.37
2023-06-04T04:09:25.696Z,179.40
2023-06-04T04:10:25.784Z,179.64
2023-06-04T04:11:25.819Z,178.34
2023-06-04T04:12:25.856Z,177.96
2023-06-04T04:13:25.908Z,178.44
2023-06-04T04:14:25.915Z,179.93
2023-06-04T04:15:25.978Z,179.69
2023-06-04T04:16:26.063Z,180.27
2023-06-04T04:17:26.022Z,180.43
2023-06-04T04:18:25.993Z,179.96
2023-06-04T04:19:26.047Z,178.52
2023-06-04T04:20:26.075Z,180.31
2023-06-04T04:21:26.130Z,182.66
2023-06-04T04:22:26.184Z,182.98
2023-06-04T04:23:26.204Z,181.04
2023-06-04T04:24:26.239Z,182.30
2023-06-04T04:25:26.238Z,184.59
2023-06-04T04:26:26.244Z,187.00
2023-06-04T04:27:26.267Z,183.12
2023-06-04T04:28:26.262Z,183.73
2023-06-04T04:29:26.259Z,183.83
2023-06-04T04:30:26.289Z,181.87
2023-06-04T04:31:26.364Z,182.53
2023-06-04T04:32:26.369Z,184.22
2023-06-04T04:33:26.353Z,182.29
2023-06-04T04:34:26.363Z,180.75
2023-06-04T04:35:26.419Z,176.78
2023-06-04T04:36:26.432Z,179.28
2023-06-04T04:37:26.485Z,180.48
2023-06-04T04:38:26.455Z,181.50
2023-06-04T04:39:26.549Z,182.39
2023-06-04T04:40:26.648Z,182.90
2023-06-04T04:41:26.625Z,182.42
2023-06-04T04:42:26.696Z,179.35
2023-06-04T04:43:26.722Z,179.12
2023-06-04T04:44:26.748Z,178.99
2023-06-04T04:45:26.735Z,177.76
2023-06-04T04:46:26.795Z,178.14
2023-06-04T04:47:26.800Z,176.15
2023-06-04T04:48:26.786Z,176.10
2023-06-04T04:49:26.861Z,175.86
2023-06-04T04:50:26.919Z,175.28
2023-06-04T04:51:26.913Z,173.75
2023-06-04T04:52:26.979Z,174.37
2023-06-04T04:53:27.002Z,173.55
2023-06-04T04:54:27.018Z,174.21
2023-06-04T04:55:27.033Z,171.63
2023-06-04T04:56:27.108Z,170.50
2023-06-04T04:57:27.078Z,170.49
2023-06-04T04:58:27.180Z,168.67
2023-06-04T04:59:27.165Z,167.98
2023-06-04T05:00:27.195Z,168.67
2023-06-04T05:01:27.302Z,167.85
2023-06-04T05:02:27.334Z,167.03
2023-06-04T05:03:27.277Z,163.01
2023-06-04T05:04:27.422Z,159.92
2023-06-04T05:05:27.374Z,163.91
2023-06-04T05:06:27.388Z,165.06
2023-06-04T05:07:27.414Z,165.20
2023-06-04T05:08:27.474Z,162.52
2023-06-04T05:09:27.521Z,163.87
2023-06-04T05:10:27.542Z,161.58
2023-06-04T05:11:27.495Z,159.39
2023-06-04T05:12:27.512Z,162.85
2023-06-04T05:13:27.597Z,165.80
2023-06-04T05:14:27.601Z,162.56
2023-06-04T05:15:27.893Z,162.41
2023-06-04T05:16:27.694Z,159.16
2023-06-04T05:17:27.695Z,158.28
2023-06-04T05:18:27.720Z,155.64
2023-06-04T05:19:27.801Z,160.16
2023-06-04T05:20:27.740Z,164.63
2023-06-04T05:21:27.803Z,162.29
2023-06-04T05:22:27.811Z,163.25
2023-06-04T05:23:27.832Z,162.62
2023-06-04T05:24:27.872Z,161.13
2023-06-04T05:25:27.841Z,157.86
2023-06-04T05:26:27.876Z,155.84
2023-06-04T05:27:27.874Z,158.41
2023-06-04T05:28:27.895Z,159.75
2023-06-04T05:29:27.955Z,160.34
2023-06-04T05:30:27.959Z,158.54
2023-06-04T05:31:28.024Z,158.59
2023-06-04T05:32:28.049Z,154.42
2023-06-04T05:33:28.003Z,160.20
2023-06-04T05:34:28.013Z,159.66
2023-06-04T05:35:28.031Z,154.91
2023-06-04T05:36:28.052Z,154.35
2023-06-04T05:37:28.068Z,158.20
2023-06-04T05:38:28.066Z,156.23
2023-06-04T05:39:28.080Z,154.85
2023-06-04T05:40:28.137Z,157.64
2023-06-04T05:41:28.186Z,159.56
2023-06-04T05:42:28.210Z,160.70
2023-06-04T05:43:28.251Z,154.63
2023-06-04T05:44:28.268Z,155.47
2023-06-04T05:45:28.267Z,160.46
2023-06-04T05:46:28.392Z,158.51
2023-06-04T05:47:28.449Z,156.42
2023-06-04T05:48:28.402Z,152.84
2023-06-04T05:49:28.402Z,151.47
2023-06-04T05:50:28.387Z,155.49
2023-06-04T05:51:28.373Z,153.88
2023-06-04T05:52:28.433Z,156.22
2023-06-04T05:53:28.632Z,152.92
2023-06-04T05:54:28.483Z,153.20
2023-06-04T05:55:28.496Z,152.63
2023-06-04T05:56:28.560Z,156.56
2023-06-04T05:57:28.561Z,154.39
2023-06-04T05:58:28.646Z,153.34
2023-06-04T05:59:28.689Z,149.05
2023-06-04T06:00:28.656Z,154.10
2023-06-04T06:01:28.674Z,154.63
2023-06-04T06:02:28.776Z,150.36
2023-06-04T06:03:28.903Z,147.35
2023-06-04T06:04:28.878Z,149.76
2023-06-04T06:05:28.824Z,147.46
2023-06-04T06:06:28.889Z,147.63
2023-06-04T06:07:28.880Z,147.91
2023-06-04T06:08:28.877Z,143.03
2023-06-04T06:09:28.952Z,138.48
2023-06-04T06:10:28.972Z,141.66
2023-06-04T06:11:29.028Z,145.44
2023-06-04T06:12:29.077Z,144.71
2023-06-04T06:13:29.088Z,141.54
2023-06-04T06:14:29.092Z,142.96
2023-06-04T06:15:29.136Z,147.17
2023-06-04T06:16:29.218Z,145.35
2023-06-04T06:17:29.246Z,143.29
2023-06-04T06:18:29.230Z,146.26
2023-06-04T06:19:29.227Z,144.95
2023-06-04T06:20:29.279Z,147.68
2023-06-04T06:21:29.277Z,146.02
2023-06-04T06:22:29.297Z,146.29
2023-06-04T06:23:29.341Z,141.49
2023-06-04T06:24:29.370Z,145.49
2023-06-04T06:25:29.373Z,147.35
2023-06-04T06:26:29.408Z,149.63
2023-06-04T06:27:29.419Z,145.75
2023-06-04T06:28:29.497Z,148.20
2023-06-04T06:29:29.498Z,146.14
2023-06-04T06:30:29.584Z,144.38
2023-06-04T06:31:29.621Z,141.90
2023-06-04T06:32:29.589Z,137.46
2023-06-04T06:33:29.638Z,142.17
2023-06-04T06:34:29.645Z,139.36
2023-06-04T06:35:30.107Z,146.98
2023-06-04T06:36:29.718Z,144.15
2023-06-04T06:37:29.713Z,144.58
2023-06-04T06:38:29.778Z,142.18
2023-06-04T06:39:29.766Z,143.57
2023-06-04T06:40:29.827Z,140.73
2023-06-04T06:41:29.891Z,133.74
2023-06-04T06:42:29.946Z,134.45
2023-06-04T06:43:29.965Z,138.04
2023-06-04T06:44:30.063Z,136.61
2023-06-04T06:45:30.077Z,134.18
2023-06-04T06:46:30.106Z,127.41
2023-06-04T06:47:30.143Z,125.12
2023-06-04T06:48:30.168Z,126.78
2023-06-04T06:49:30.206Z,133.97
2023-06-04T06:50:30.258Z,130.87
2023-06-04T06:51:30.263Z,125.56
2023-06-04T06:52:31.569Z,112.83
2023-06-04T06:53:30.330Z,109.83
2023-06-04T06:54:30.314Z,110.12
2023-06-04T06:55:30.289Z,116.52
2023-06-04T06:56:30.297Z,116.39
2023-06-04T06:57:30.307Z,102.39
2023-06-04T06:58:30.321Z,97.30
2023-06-04T06:59:30.320Z,87.82
2023-06-04T07:00:30.329Z,84.17
2023-06-04T07:01:30.357Z,81.22
2023-06-04T07:02:30.349Z,89.00
2023-06-04T07:03:30.285Z,98.30
2023-06-04T07:04:30.236Z,103.21
2023-06-04T07:05:30.259Z,102.24
2023-06-04T07:06:30.221Z,96.71
2023-06-04T07:07:30.208Z,87.15
2023-06-04T07:08:30.235Z,84.06
2023-06-04T07:09:30.237Z,89.80
2023-06-04T07:10:30.185Z,92.32
2023-06-04T07:11:30.188Z,90.40
2023-06-04T07:12:30.203Z,99.81
2023-06-04T07:13:30.140Z,103.42
2023-06-04T07:14:30.166Z,101.02
2023-06-04T07:15:30.177Z,97.65
2023-06-04T07:16:30.226Z,91.43
2023-06-04T07:17:30.157Z,91.66
2023-06-04T07:18:30.141Z,85.47
2023-06-04T07:19:30.147Z,87.51
2023-06-04T07:20:30.140Z,84.69
2023-06-04T07:21:30.100Z,87.40
2023-06-04T07:22:30.086Z,89.82
2023-06-04T07:23:30.182Z,87.90
2023-06-04T07:24:30.115Z,84.67
2023-06-04T07:25:30.075Z,86.17
2023-06-04T07:26:31.889Z,85.19
2023-06-04T07:27:30.082Z,81.76
2023-06-04T07:28:30.107Z,83.67
2023-06-04T07:29:30.072Z,87.51
2023-06-04T07:30:30.044Z,89.35
2023-06-04T07:31:30.080Z,82.62
2023-06-04T07:32:30.060Z,84.70
2023-06-04T07:33:30.739Z,86.16
2023-06-04T07:34:30.042Z,76.57
2023-06-04T07:35:30.033Z,78.62
2023-06-04T07:36:30.002Z,68.80
2023-06-04T07:37:30.003Z,63.06
2023-06-04T07:38:30.020Z,68.04
2023-06-04T07:39:30.075Z,66.26
2023-06-04T07:40:29.971Z,73.88
2023-06-04T07:41:30.023Z,68.38
2023-06-04T07:42:29.995Z,70.72
2023-06-04T07:43:29.936Z,59.54
2023-06-04T07:44:29.968Z,53.24
2023-06-04T07:45:30.907Z,52.89
2023-06-04T07:46:30.022Z,50.04
2023-06-04T07:47:29.995Z,52.45
2023-06-04T07:48:29.928Z,61.77
2023-06-04T07:49:29.979Z,62.92
2023-06-04T07:50:29.932Z,63.44
2023-06-04T07:51:29.874Z,63.01
2023-06-04T07:52:29.913Z,47.74
2023-06-04T07:53:29.894Z,45.47
2023-06-04T07:54:29.915Z,55.50
2023-06-04T07:55:29.878Z,48.22
2023-06-04T07:56:29.879Z,53.44
2023-06-04T07:57:29.896Z,48.49
2023-06-04T07:58:29.895Z,33.41
2023-06-04T07:59:29.929Z,31.59
2023-06-04T08:00:29.914Z,42.81
2023-06-04T08:01:29.915Z,48.96
2023-06-04T08:02:30.042Z,60.07
2023-06-04T08:03:30.119Z,61.99
2023-06-04T08:04:30.121Z,65.99
2023-06-04T08:05:30.088Z,71.09
2023-06-04T08:06:30.094Z,71.30
2023-06-04T08:07:30.156Z,68.17
2023-06-04T08:08:30.160Z,57.37
2023-06-04T08:09:30.206Z,56.29
2023-06-04T08:10:30.190Z,62.43
2023-06-04T08:11:30.228Z,57.34
2023-06-04T08:12:30.328Z,65.17
2023-06-04T08:13:30.354Z,65.63
2023-06-04T08:14:30.304Z,62.90
2023-06-04T08:15:30.406Z,64.47
2023-06-04T08:16:30.434Z,69.50
2023-06-04T08:17:30.402Z,75.96
2023-06-04T08:18:30.440Z,76.53
2023-06-04T08:19:30.417Z,75.72
2023-06-04T08:20:30.460Z,65.35
2023-06-04T08:21:30.492Z,62.26
2023-06-04T08:22:30.518Z,57.81
2023-06-04T08:23:30.565Z,56.95
2023-06-04T08:24:30.574Z,56.40
2023-06-04T08:25:30.600Z,54.86
2023-06-04T08:26:30.668Z,50.31
2023-06-04T08:27:30.674Z,51.81
2023-06-04T08:28:30.728Z,59.03
2023-06-04T08:29:30.755Z,61.03
2023-06-04T08:30:30.733Z,66.97
2023-06-04T08:31:30.822Z,67.91
2023-06-04T08:32:30.883Z,61.30
2023-06-04T08:33:30.893Z,55.40
2023-06-04T08:34:30.959Z,55.65
2023-06-04T08:35:30.939Z,60.61
2023-06-04T08:36:30.940Z,60.90
2023-06-04T08:37:30.973Z,52.46
2023-06-04T08:38:31.024Z,53.94
2023-06-04T08:39:31.066Z,56.07
2023-06-04T08:40:31.029Z,52.94
2023-06-04T08:41:31.127Z,42.87
2023-06-04T08:42:31.209Z,40.55
2023-06-04T08:43:31.167Z,40.87
2023-06-04T08:44:31.247Z,44.86
2023-06-04T08:45:31.275Z,42.36
2023-06-04T08:46:31.318Z,50.90
2023-06-04T08:47:31.347Z,59.11
2023-06-04T08:48:31.334Z,52.35
2023-06-04T08:49:31.378Z,54.67
2023-06-04T08:50:31.505Z,55.32
2023-06-04T08:51:31.445Z,62.99
2023-06-04T08:52:31.464Z,57.92
2023-06-04T08:53:31.573Z,64.70
2023-06-04T08:54:31.563Z,64.60
2023-06-04T08:55:31.611Z,60.47
2023-06-04T08:56:31.564Z,68.85
2023-06-04T08:57:31.645Z,57.14
2023-06-04T08:58:31.643Z,57.37
2023-06-04T08:59:31.658Z,60.82
2023-06-04T09:00:31.649Z,63.95
2023-06-04T09:01:31.768Z,57.31
2023-06-04T09:02:31.819Z,52.42
2023-06-04T09:03:31.787Z,54.76
2023-06-04T09:04:31.779Z,57.68
2023-06-04T09:05:31.821Z,66.36
2023-06-04T09:06:31.917Z,67.09
2023-06-04T09:07:31.911Z,60.52
2023-06-04T09:08:31.911Z,58.24
2023-06-04T09:09:32.010Z,53.89
2023-06-04T09:10:32.077Z,53.72
2023-06-04T09:11:32.093Z,50.61
2023-06-04T09:12:33.316Z,48.17
2023-06-04T09:13:32.116Z,51.71
2023-06-04T09:14:32.122Z,53.92
2023-06-04T09:15:32.169Z,50.60
2023-06-04T09:16:32.232Z,58.84
2023-06-04T09:17:32.235Z,52.12
2023-06-04T09:18:32.248Z,48.45
2023-06-04T09:19:32.261Z,50.38
2023-06-04T09:20:32.321Z,48.99
2023-06-04T09:21:32.309Z,51.77
2023-06-04T09:22:32.316Z,58.54
2023-06-04T09:23:32.414Z,50.84
2023-06-04T09:24:32.425Z,56.17
2023-06-04T09:25:32.465Z,56.54
2023-06-04T09:26:32.508Z,61.98
2023-06-04T09:27:32.468Z,69.24
2023-06-04T09:28:32.495Z,57.17
2023-06-04T09:29:32.519Z,52.29
2023-06-04T09:30:32.588Z,55.13
2023-06-04T09:31:32.709Z,48.25
2023-06-04T09:32:32.690Z,50.00
2023-06-04T09:33:32.661Z,48.87
2023-06-04T09:34:32.718Z,48.14
2023-06-04T09:35:32.725Z,46.98
2023-06-04T09:36:32.710Z,47.36
2023-06-04T09:37:32.767Z,43.61
2023-06-04T09:38:32.783Z,42.22
2023-06-04T09:39:32.836Z,39.34
2023-06-04T09:40:32.845Z,47.29
2023-06-04T09:41:32.856Z,49.49
2023-06-04T09:42:32.860Z,50.51
2023-06-04T09:43:32.922Z,44.69
2023-06-04T09:44:32.933Z,51.40
2023-06-04T09:45:33.223Z,46.14
2023-06-04T09:46:33.149Z,43.70
2023-06-04T09:47:33.032Z,40.33
2023-06-04T09:48:33.006Z,35.76
2023-06-04T09:49:33.071Z,41.32
2023-06-04T09:50:33.123Z,41.24
2023-06-04T09:51:33.160Z,52.65
2023-06-04T09:52:33.169Z,48.04
2023-06-04T09:54:31.138Z,50.00
2023-06-04T09:55:31.109Z,50.00
2023-06-04T09:56:31.108Z,50.00
2023-06-04T09:57:31.098Z,50.00
2023-06-04T09:58:31.078Z,50.00
2023-06-04T09:59:31.107Z,59.80
2023-06-04T10:00:31.077Z,19.78
2023-06-04T10:01:31.235Z,4.93
2023-06-04T10:02:31.095Z,0.00
2023-06-04T10:03:31.164Z,0.00
2023-06-04T10:04:31.038Z,0.00
2023-06-04T10:05:31.065Z,35.22
2023-06-04T10:06:31.025Z,35.04
2023-06-04T10:07:31.021Z,46.19
2023-06-04T10:08:31.033Z,47.35
2023-06-04T10:09:33.314Z,49.92
2023-06-04T10:10:31.119Z,46.70
2023-06-04T10:11:31.106Z,51.75
2023-06-04T10:12:31.120Z,66.82
2023-06-04T10:13:31.175Z,83.83
2023-06-04T10:14:31.204Z,213.71
2023-06-04T10:15:31.245Z,196.49
2023-06-04T10:16:34.688Z,139.23
2023-06-04T10:17:31.303Z,102.05
2023-06-04T10:18:31.269Z,67.35
2023-06-04T10:19:31.286Z,62.18
2023-06-04T10:20:31.256Z,64.52
2023-06-04T10:21:31.258Z,102.34
2023-06-04T10:22:31.261Z,88.02
2023-06-04T10:23:31.294Z,70.02
2023-06-04T10:24:31.215Z,143.90
2023-06-04T10:25:31.226Z,148.67
2023-06-04T10:26:31.206Z,118.50
2023-06-04T10:27:31.220Z,122.65
2023-06-04T10:28:31.178Z,74.47
2023-06-04T10:29:31.200Z,68.60
2023-06-04T10:30:31.184Z,85.87
2023-06-04T10:31:31.267Z,92.07
2023-06-04T10:32:31.201Z,95.52
2023-06-04T10:33:31.124Z,76.15
2023-06-04T10:34:31.178Z,115.97
2023-06-04T10:35:31.151Z,154.75
2023-06-04T10:36:31.145Z,187.30
2023-06-04T10:37:31.156Z,153.32
2023-06-04T10:38:31.102Z,176.25
2023-06-04T10:39:31.170Z,191.85
2023-06-04T10:40:31.120Z,199.97
2023-06-04T10:41:31.117Z,172.89
2023-06-04T10:42:31.104Z,225.51
2023-06-04T10:43:31.068Z,185.56
2023-06-04T10:44:31.087Z,147.58
2023-06-04T10:45:31.083Z,159.92
2023-06-04T10:46:31.070Z,130.30
2023-06-04T10:47:31.108Z,206.47
2023-06-04T10:48:31.077Z,198.74
2023-06-04T10:49:31.133Z,159.44
2023-06-04T10:50:31.005Z,111.36
2023-06-04T10:51:31.017Z,116.08
2023-06-04T10:52:31.024Z,183.89
2023-06-04T10:53:30.989Z,163.62
2023-06-04T10:54:31.013Z,230.31
2023-06-04T10:55:30.985Z,253.89
2023-06-04T10:56:30.972Z,224.82
2023-06-04T10:57:30.980Z,176.59
2023-06-04T10:58:30.985Z,176.48
2023-06-04T10:59:30.978Z,151.89
2023-06-04T11:00:30.959Z,154.29
2023-06-04T11:01:31.002Z,145.65
2023-06-04T11:02:30.989Z,148.72
2023-06-04T11:03:31.062Z,111.29
2023-06-04T11:04:31.027Z,125.52
2023-06-04T11:05:31.143Z,123.60
2023-06-04T11:06:31.152Z,112.01
2023-06-04T11:07:31.200Z,104.80
2023-06-04T11:08:31.230Z,120.14
2023-06-04T11:09:32.241Z,117.29
2023-06-04T11:10:31.338Z,123.84
2023-06-04T11:11:31.289Z,138.66
2023-06-04T11:12:31.289Z,150.01
2023-06-04T11:13:31.355Z,152.44
2023-06-04T11:14:31.365Z,157.78
2023-06-04T11:15:31.404Z,137.57
2023-06-04T11:16:31.434Z,140.85
2023-06-04T11:17:31.542Z,174.58
2023-06-04T11:18:31.525Z,180.46
2023-06-04T11:19:31.484Z,193.81
2023-06-04T11:20:31.536Z,203.76
2023-06-04T11:21:31.599Z,151.10
2023-06-04T11:22:31.618Z,160.81
2023-06-04T11:23:31.681Z,140.15
2023-06-04T11:24:31.661Z,143.76
2023-06-04T11:25:31.724Z,148.51
2023-06-04T11:26:31.774Z,174.31
2023-06-04T11:27:36.857Z,159.50
2023-06-04T11:28:32.818Z,159.87
2023-06-04T11:29:31.803Z,163.09
2023-06-04T11:30:31.782Z,161.33
2023-06-04T11:31:31.842Z,163.52
2023-06-04T11:32:31.858Z,183.15
2023-06-04T11:33:31.797Z,179.12
2023-06-04T11:34:31.817Z,166.63
2023-06-04T11:35:31.796Z,168.29
2023-06-04T11:36:31.783Z,167.48
2023-06-04T11:37:31.825Z,152.32
2023-06-04T11:38:31.717Z,159.07
2023-06-04T11:39:31.721Z,160.32
2023-06-04T11:40:31.733Z,155.40
2023-06-04T11:41:31.750Z,198.58
2023-06-04T11:42:31.698Z,177.10
2023-06-04T11:43:31.693Z,164.52
2023-06-04T11:44:31.776Z,152.38
2023-06-04T11:45:31.836Z,164.76
2023-06-04T11:46:31.777Z,160.03
2023-06-04T11:47:31.923Z,168.78
2023-06-04T11:48:31.957Z,156.89
2023-06-04T11:49:31.865Z,166.19
2023-06-04T11:50:31.946Z,159.89
2023-06-04T11:51:32.010Z,174.30
2023-06-04T11:52:32.033Z,152.21
2023-06-04T11:53:32.066Z,128.92
2023-06-04T11:54:32.141Z,125.81
2023-06-04T11:55:32.159Z,165.78
2023-06-04T11:56:32.151Z,153.38
2023-06-04T11:57:32.256Z,125.95
2023-06-04T11:58:32.200Z,145.18
2023-06-04T11:59:32.277Z,157.89
2023-06-04T12:00:32.287Z,150.72
2023-06-04T12:01:32.262Z,128.39
2023-06-04T12:02:32.330Z,119.54
2023-06-04T12:03:32.282Z,105.54
2023-06-04T12:04:32.306Z,90.30
2023-06-04T12:05:32.465Z,100.47
2023-06-04T12:06:32.363Z,132.21
2023-06-04T12:07:32.396Z,115.15
2023-06-04T12:08:32.412Z,116.47
2023-06-04T12:09:32.524Z,101.09
2023-06-04T12:10:32.513Z,83.66
2023-06-04T12:11:32.634Z,75.70
2023-06-04T12:12:32.614Z,74.50
2023-06-04T12:13:32.644Z,64.56
2023-06-04T12:14:32.724Z,59.51
2023-06-04T12:15:32.689Z,53.32
2023-06-04T12:16:32.738Z,52.55
2023-06-04T12:17:32.828Z,41.22
2023-06-04T12:18:32.815Z,37.09
2023-06-04T12:19:32.822Z,54.28
2023-06-04T12:20:32.867Z,71.99
2023-06-04T12:21:32.885Z,49.85
2023-06-04T12:22:32.888Z,72.60
2023-06-04T12:23:32.938Z,56.79
2023-06-04T12:24:32.921Z,78.58
2023-06-04T12:25:33.010Z,78.35
2023-06-04T12:26:33.032Z,104.08
2023-06-04T12:27:33.076Z,92.10
2023-06-04T12:28:33.084Z,74.03
2023-06-04T12:29:33.068Z,50.35
2023-06-04T12:30:33.151Z,104.30
2023-06-04T12:31:33.331Z,82.59
2023-06-04T12:32:33.241Z,75.25
2023-06-04T12:33:33.247Z,83.73
2023-06-04T12:34:33.269Z,73.04
2023-06-04T12:35:33.280Z,48.21
2023-06-04T12:36:33.292Z,48.26